Shiner, Texas
Current Conditions -  °F | °C
As of 8:55 PM on Thursday 27 Nov 2014 (Local Time) from KT20 Reporting Station
Clear Clear  
Wind Chill: 54°   Ceiling: Unl
Heat Index: 54°   Visibility: 10mi
Dew Point: 35°   Wind: 3mph
Humidity: 50%   Direction: 120°ESE
Pressure: 30.4"   Gusts: NA
Location:  29.43°N, 97.17°W
Report Text: KT20 280255Z AUTO 12003KT 10SM CLR 12/02 A3040 RMK AO2 T01200018
Loading
Personal Weather Stations






























Interactive Weather Map New forecast layout! Learn more

10-Day Weather Forecast

Advertisements
Track Severe Weather on mobile